sensor_id;sensor_type;location;lat;lon;timestamp;P1;durP1;ratioP1;P2;durP2;ratioP2
6374;SDS011;35400;45.472;-122.822;2023-07-16T00:00:21;1.00;;;1.00;;
6374;SDS011;35400;45.472;-122.822;2023-07-16T00:02:52;0.90;;;0.90;;
6374;SDS011;35400;45.472;-122.822;2023-07-16T00:05:19;1.52;;;0.90;;
6374;SDS011;35400;45.472;-122.822;2023-07-16T00:07:47;1.00;;;0.90;;
6374;SDS011;35400;45.472;-122.822;2023-07-16T00:10:14;0.93;;;0.93;;
6374;SDS011;35400;45.472;-122.822;2023-07-16T00:12:41;0.80;;;0.80;;
6374;SDS011;35400;45.472;-122.822;2023-07-16T00:15:08;1.60;;;1.15;;
6374;SDS011;35400;45.472;-122.822;2023-07-16T00:17:35;1.55;;;1.10;;
6374;SDS011;35400;45.472;-122.822;2023-07-16T00:20:02;1.33;;;1.15;;
6374;SDS011;35400;45.472;-122.822;2023-07-16T00:22:30;1.67;;;1.00;;
6374;SDS011;35400;45.472;-122.822;2023-07-16T00:24:57;1.02;;;1.00;;
6374;SDS011;35400;45.472;-122.822;2023-07-16T00:27:24;0.90;;;0.90;;
6374;SDS011;35400;45.472;-122.822;2023-07-16T00:29:51;0.90;;;0.90;;
6374;SDS011;35400;45.472;-122.822;2023-07-16T00:32:19;1.42;;;1.38;;
6374;SDS011;35400;45.472;-122.822;2023-07-16T00:34:46;2.20;;;1.15;;
6374;SDS011;35400;45.472;-122.822;2023-07-16T00:37:12;1.30;;;1.13;;
6374;SDS011;35400;45.472;-122.822;2023-07-16T00:39:39;1.08;;;1.00;;
6374;SDS011;35400;45.472;-122.822;2023-07-16T00:42:06;1.92;;;1.05;;
6374;SDS011;35400;45.472;-122.822;2023-07-16T00:44:33;1.67;;;1.10;;
6374;SDS011;35400;45.472;-122.822;2023-07-16T00:47:00;1.20;;;1.13;;
6374;SDS011;35400;45.472;-122.822;2023-07-16T00:49:28;1.15;;;1.10;;
6374;SDS011;35400;45.472;-122.822;2023-07-16T00:51:55;1.42;;;1.33;;
6374;SDS011;35400;45.472;-122.822;2023-07-16T00:54:22;0.88;;;0.88;;
6374;SDS011;35400;45.472;-122.822;2023-07-16T00:56:50;1.35;;;1.25;;
6374;SDS011;35400;45.472;-122.822;2023-07-16T00:59:17;1.23;;;1.20;;
6374;SDS011;35400;45.472;-122.822;2023-07-16T01:01:43;1.00;;;1.00;;
6374;SDS011;35400;45.472;-122.822;2023-07-16T01:04:13;2.65;;;1.33;;
6374;SDS011;35400;45.472;-122.822;2023-07-16T01:06:40;1.20;;;1.10;;
6374;SDS011;35400;45.472;-122.822;2023-07-16T01:09:14;1.33;;;1.27;;
6374;SDS011;35400;45.472;-122.822;2023-07-16T01:11:43;1.23;;;1.13;;
6374;SDS011;35400;45.472;-122.822;2023-07-16T01:14:15;3.00;;;1.20;;
6374;SDS011;35400;45.472;-122.822;2023-07-16T01:16:43;1.45;;;1.08;;
6374;SDS011;35400;45.472;-122.822;2023-07-16T01:19:10;2.00;;;1.30;;
6374;SDS011;35400;45.472;-122.822;2023-07-16T01:21:57;0.98;;;0.93;;
6374;SDS011;35400;45.472;-122.822;2023-07-16T01:30:21;1.05;;;1.05;;
6374;SDS011;35400;45.472;-122.822;2023-07-16T01:32:50;1.30;;;1.20;;
6374;SDS011;35400;45.472;-122.822;2023-07-16T01:35:17;1.67;;;1.00;;
6374;SDS011;35400;45.472;-122.822;2023-07-16T01:37:45;1.08;;;1.08;;
6374;SDS011;35400;45.472;-122.822;2023-07-16T01:40:11;1.20;;;1.10;;
6374;SDS011;35400;45.472;-122.822;2023-07-16T01:42:39;2.30;;;1.00;;
6374;SDS011;35400;45.472;-122.822;2023-07-16T01:45:06;1.63;;;0.80;;
6374;SDS011;35400;45.472;-122.822;2023-07-16T01:50:31;1.27;;;1.20;;
6374;SDS011;35400;45.472;-122.822;2023-07-16T01:52:58;1.33;;;1.02;;
6374;SDS011;35400;45.472;-122.822;2023-07-16T01:55:25;0.85;;;0.82;;
6374;SDS011;35400;45.472;-122.822;2023-07-16T01:57:52;1.85;;;1.10;;
6374;SDS011;35400;45.472;-122.822;2023-07-16T02:00:19;1.23;;;1.23;;
6374;SDS011;35400;45.472;-122.822;2023-07-16T02:02:45;1.73;;;1.27;;
6374;SDS011;35400;45.472;-122.822;2023-07-16T02:05:14;1.20;;;1.10;;
6374;SDS011;35400;45.472;-122.822;2023-07-16T02:07:41;1.10;;;1.10;;
6374;SDS011;35400;45.472;-122.822;2023-07-16T02:10:08;1.38;;;1.27;;
6374;SDS011;35400;45.472;-122.822;2023-07-16T02:12:35;1.13;;;1.13;;
6374;SDS011;35400;45.472;-122.822;2023-07-16T02:15:01;1.13;;;1.00;;
6374;SDS011;35400;45.472;-122.822;2023-07-16T02:17:34;2.15;;;1.10;;
6374;SDS011;35400;45.472;-122.822;2023-07-16T02:20:01;1.48;;;1.02;;
6374;SDS011;35400;45.472;-122.822;2023-07-16T02:22:31;1.63;;;1.30;;
6374;SDS011;35400;45.472;-122.822;2023-07-16T02:24:58;6.53;;;6.03;;
6374;SDS011;35400;45.472;-122.822;2023-07-16T02:27:24;2.97;;;2.40;;
6374;SDS011;35400;45.472;-122.822;2023-07-16T02:29:51;2.35;;;1.42;;
6374;SDS011;35400;45.472;-122.822;2023-07-16T02:32:18;2.65;;;1.25;;
6374;SDS011;35400;45.472;-122.822;2023-07-16T02:34:45;3.17;;;1.50;;
6374;SDS011;35400;45.472;-122.822;2023-07-16T02:37:12;3.10;;;1.40;;
6374;SDS011;35400;45.472;-122.822;2023-07-16T02:39:40;1.30;;;1.20;;
6374;SDS011;35400;45.472;-122.822;2023-07-16T02:42:08;1.45;;;1.33;;
6374;SDS011;35400;45.472;-122.822;2023-07-16T02:44:35;1.42;;;1.33;;
6374;SDS011;35400;45.472;-122.822;2023-07-16T02:47:09;1.85;;;1.30;;
6374;SDS011;35400;45.472;-122.822;2023-07-16T02:49:39;1.60;;;1.50;;
6374;SDS011;35400;45.472;-122.822;2023-07-16T02:52:06;2.20;;;1.40;;
6374;SDS011;35400;45.472;-122.822;2023-07-16T02:54:34;2.63;;;1.50;;
6374;SDS011;35400;45.472;-122.822;2023-07-16T02:57:02;1.75;;;1.50;;
6374;SDS011;35400;45.472;-122.822;2023-07-16T02:59:29;2.00;;;1.40;;
6374;SDS011;35400;45.472;-122.822;2023-07-16T03:01:56;1.48;;;1.23;;
6374;SDS011;35400;45.472;-122.822;2023-07-16T03:04:23;2.50;;;1.50;;
6374;SDS011;35400;45.472;-122.822;2023-07-16T03:06:51;1.80;;;1.52;;
6374;SDS011;35400;45.472;-122.822;2023-07-16T03:09:18;1.50;;;1.38;;
6374;SDS011;35400;45.472;-122.822;2023-07-16T03:11:45;1.95;;;1.80;;
6374;SDS011;35400;45.472;-122.822;2023-07-16T03:14:13;2.55;;;1.50;;
6374;SDS011;35400;45.472;-122.822;2023-07-16T03:16:40;2.35;;;1.58;;
6374;SDS011;35400;45.472;-122.822;2023-07-16T03:19:08;1.67;;;1.50;;
6374;SDS011;35400;45.472;-122.822;2023-07-16T03:21:35;2.88;;;1.60;;
6374;SDS011;35400;45.472;-122.822;2023-07-16T03:24:02;2.35;;;1.35;;
6374;SDS011;35400;45.472;-122.822;2023-07-16T03:26:29;1.88;;;1.40;;
6374;SDS011;35400;45.472;-122.822;2023-07-16T03:28:57;1.92;;;1.40;;
6374;SDS011;35400;45.472;-122.822;2023-07-16T03:31:24;1.90;;;1.50;;
6374;SDS011;35400;45.472;-122.822;2023-07-16T03:33:50;2.28;;;1.80;;
6374;SDS011;35400;45.472;-122.822;2023-07-16T03:36:18;2.00;;;1.90;;
6374;SDS011;35400;45.472;-122.822;2023-07-16T03:38:45;2.53;;;1.75;;
6374;SDS011;35400;45.472;-122.822;2023-07-16T03:41:12;3.22;;;1.45;;
6374;SDS011;35400;45.472;-122.822;2023-07-16T03:43:39;1.50;;;1.40;;
6374;SDS011;35400;45.472;-122.822;2023-07-16T03:46:15;1.48;;;1.38;;
6374;SDS011;35400;45.472;-122.822;2023-07-16T03:48:42;2.25;;;1.73;;
6374;SDS011;35400;45.472;-122.822;2023-07-16T03:51:10;1.98;;;1.38;;
6374;SDS011;35400;45.472;-122.822;2023-07-16T03:53:37;1.40;;;1.30;;
6374;SDS011;35400;45.472;-122.822;2023-07-16T03:56:05;2.20;;;1.45;;
6374;SDS011;35400;45.472;-122.822;2023-07-16T03:58:31;2.08;;;1.48;;
6374;SDS011;35400;45.472;-122.822;2023-07-16T04:01:01;1.70;;;1.20;;
6374;SDS011;35400;45.472;-122.822;2023-07-16T04:03:28;2.10;;;1.85;;
6374;SDS011;35400;45.472;-122.822;2023-07-16T04:06:02;1.65;;;1.52;;
6374;SDS011;35400;45.472;-122.822;2023-07-16T04:08:35;1.85;;;1.38;;
6374;SDS011;35400;45.472;-122.822;2023-07-16T04:11:05;2.53;;;1.48;;
6374;SDS011;35400;45.472;-122.822;2023-07-16T04:13:32;1.95;;;1.80;;
6374;SDS011;35400;45.472;-122.822;2023-07-16T04:15:59;3.40;;;2.40;;
6374;SDS011;35400;45.472;-122.822;2023-07-16T04:18:26;2.92;;;1.65;;
6374;SDS011;35400;45.472;-122.822;2023-07-16T04:20:53;2.20;;;2.00;;
6374;SDS011;35400;45.472;-122.822;2023-07-16T04:23:20;2.67;;;2.30;;
6374;SDS011;35400;45.472;-122.822;2023-07-16T04:25:51;3.97;;;2.33;;
6374;SDS011;35400;45.472;-122.822;2023-07-16T04:28:21;2.30;;;1.90;;
6374;SDS011;35400;45.472;-122.822;2023-07-16T04:30:48;3.28;;;2.33;;
6374;SDS011;35400;45.472;-122.822;2023-07-16T04:33:15;2.35;;;2.15;;
6374;SDS011;35400;45.472;-122.822;2023-07-16T04:35:42;2.58;;;2.08;;
6374;SDS011;35400;45.472;-122.822;2023-07-16T04:38:09;2.55;;;2.35;;
6374;SDS011;35400;45.472;-122.822;2023-07-16T04:40:35;2.78;;;2.45;;
6374;SDS011;35400;45.472;-122.822;2023-07-16T04:43:02;2.50;;;2.30;;
6374;SDS011;35400;45.472;-122.822;2023-07-16T04:45:29;2.88;;;2.40;;
6374;SDS011;35400;45.472;-122.822;2023-07-16T04:47:56;2.88;;;2.50;;
6374;SDS011;35400;45.472;-122.822;2023-07-16T04:50:24;2.97;;;2.60;;
6374;SDS011;35400;45.472;-122.822;2023-07-16T04:52:51;2.80;;;2.53;;
6374;SDS011;35400;45.472;-122.822;2023-07-16T04:55:18;2.97;;;2.78;;
6374;SDS011;35400;45.472;-122.822;2023-07-16T04:57:45;2.80;;;2.53;;
6374;SDS011;35400;45.472;-122.822;2023-07-16T05:00:12;2.85;;;2.63;;
6374;SDS011;35400;45.472;-122.822;2023-07-16T05:02:39;3.08;;;2.22;;
6374;SDS011;35400;45.472;-122.822;2023-07-16T05:05:06;2.63;;;2.45;;
6374;SDS011;35400;45.472;-122.822;2023-07-16T05:07:33;3.50;;;2.90;;
6374;SDS011;35400;45.472;-122.822;2023-07-16T05:09:59;2.60;;;2.40;;
6374;SDS011;35400;45.472;-122.822;2023-07-16T05:12:26;2.83;;;2.63;;
6374;SDS011;35400;45.472;-122.822;2023-07-16T05:14:53;2.60;;;2.40;;
6374;SDS011;35400;45.472;-122.822;2023-07-16T05:17:20;3.63;;;2.75;;
6374;SDS011;35400;45.472;-122.822;2023-07-16T05:19:47;3.40;;;3.10;;
6374;SDS011;35400;45.472;-122.822;2023-07-16T05:22:14;2.67;;;2.17;;
6374;SDS011;35400;45.472;-122.822;2023-07-16T05:24:40;2.72;;;2.53;;
6374;SDS011;35400;45.472;-122.822;2023-07-16T05:27:07;3.17;;;2.88;;
6374;SDS011;35400;45.472;-122.822;2023-07-16T05:29:34;2.88;;;2.55;;
6374;SDS011;35400;45.472;-122.822;2023-07-16T05:32:01;3.30;;;3.00;;
6374;SDS011;35400;45.472;-122.822;2023-07-16T05:34:28;2.80;;;2.50;;
6374;SDS011;35400;45.472;-122.822;2023-07-16T05:36:55;2.90;;;2.70;;
6374;SDS011;35400;45.472;-122.822;2023-07-16T05:39:22;2.63;;;2.42;;
6374;SDS011;35400;45.472;-122.822;2023-07-16T05:41:49;3.55;;;2.95;;
6374;SDS011;35400;45.472;-122.822;2023-07-16T05:44:16;3.88;;;3.20;;
6374;SDS011;35400;45.472;-122.822;2023-07-16T05:46:43;2.97;;;2.78;;
6374;SDS011;35400;45.472;-122.822;2023-07-16T05:49:10;3.30;;;2.95;;
6374;SDS011;35400;45.472;-122.822;2023-07-16T05:51:37;3.75;;;2.90;;
6374;SDS011;35400;45.472;-122.822;2023-07-16T05:54:04;2.92;;;2.67;;
6374;SDS011;35400;45.472;-122.822;2023-07-16T05:56:32;3.08;;;2.78;;
6374;SDS011;35400;45.472;-122.822;2023-07-16T05:58:59;4.20;;;3.15;;
6374;SDS011;35400;45.472;-122.822;2023-07-16T06:01:26;3.47;;;3.17;;
6374;SDS011;35400;45.472;-122.822;2023-07-16T06:03:52;2.42;;;2.33;;
6374;SDS011;35400;45.472;-122.822;2023-07-16T06:06:19;3.83;;;2.90;;
6374;SDS011;35400;45.472;-122.822;2023-07-16T06:08:46;2.78;;;2.58;;
6374;SDS011;35400;45.472;-122.822;2023-07-16T06:11:14;3.83;;;3.33;;
6374;SDS011;35400;45.472;-122.822;2023-07-16T06:13:41;3.97;;;3.10;;
6374;SDS011;35400;45.472;-122.822;2023-07-16T06:16:07;3.58;;;3.03;;
6374;SDS011;35400;45.472;-122.822;2023-07-16T06:18:34;3.63;;;3.33;;
6374;SDS011;35400;45.472;-122.822;2023-07-16T06:21:01;3.40;;;3.10;;
6374;SDS011;35400;45.472;-122.822;2023-07-16T06:23:28;3.15;;;2.83;;
6374;SDS011;35400;45.472;-122.822;2023-07-16T06:25:55;2.55;;;2.38;;
6374;SDS011;35400;45.472;-122.822;2023-07-16T06:28:22;2.80;;;2.60;;
6374;SDS011;35400;45.472;-122.822;2023-07-16T06:30:50;3.15;;;2.58;;
6374;SDS011;35400;45.472;-122.822;2023-07-16T06:33:19;2.80;;;2.60;;
6374;SDS011;35400;45.472;-122.822;2023-07-16T06:35:47;2.85;;;2.65;;
6374;SDS011;35400;45.472;-122.822;2023-07-16T06:38:14;2.55;;;2.35;;
6374;SDS011;35400;45.472;-122.822;2023-07-16T06:40:47;4.00;;;2.70;;
6374;SDS011;35400;45.472;-122.822;2023-07-16T06:43:16;2.78;;;2.58;;
6374;SDS011;35400;45.472;-122.822;2023-07-16T06:45:43;2.90;;;2.70;;
6374;SDS011;35400;45.472;-122.822;2023-07-16T06:48:10;3.83;;;2.75;;
6374;SDS011;35400;45.472;-122.822;2023-07-16T06:50:36;2.92;;;2.70;;
6374;SDS011;35400;45.472;-122.822;2023-07-16T06:53:04;2.83;;;2.55;;
6374;SDS011;35400;45.472;-122.822;2023-07-16T06:55:31;3.75;;;2.20;;
6374;SDS011;35400;45.472;-122.822;2023-07-16T06:57:58;2.70;;;2.50;;
6374;SDS011;35400;45.472;-122.822;2023-07-16T07:00:25;2.80;;;2.58;;
6374;SDS011;35400;45.472;-122.822;2023-07-16T07:02:52;3.78;;;2.25;;
6374;SDS011;35400;45.472;-122.822;2023-07-16T07:05:19;2.92;;;2.65;;
6374;SDS011;35400;45.472;-122.822;2023-07-16T07:07:46;2.80;;;2.60;;
6374;SDS011;35400;45.472;-122.822;2023-07-16T07:10:13;3.03;;;2.72;;
6374;SDS011;35400;45.472;-122.822;2023-07-16T07:12:40;2.50;;;2.40;;
6374;SDS011;35400;45.472;-122.822;2023-07-16T07:15:07;4.97;;;2.78;;
6374;SDS011;35400;45.472;-122.822;2023-07-16T07:17:34;2.65;;;2.45;;
6374;SDS011;35400;45.472;-122.822;2023-07-16T07:20:02;2.70;;;2.50;;
6374;SDS011;35400;45.472;-122.822;2023-07-16T07:22:31;3.08;;;2.88;;
6374;SDS011;35400;45.472;-122.822;2023-07-16T07:24:58;3.22;;;2.75;;
6374;SDS011;35400;45.472;-122.822;2023-07-16T07:27:25;3.00;;;2.80;;
6374;SDS011;35400;45.472;-122.822;2023-07-16T07:29:51;2.50;;;2.30;;
6374;SDS011;35400;45.472;-122.822;2023-07-16T07:32:21;2.72;;;2.53;;
6374;SDS011;35400;45.472;-122.822;2023-07-16T07:34:48;2.60;;;2.40;;
6374;SDS011;35400;45.472;-122.822;2023-07-16T07:37:15;3.05;;;2.78;;
6374;SDS011;35400;45.472;-122.822;2023-07-16T07:39:42;2.95;;;2.50;;
6374;SDS011;35400;45.472;-122.822;2023-07-16T07:42:11;2.80;;;2.60;;
6374;SDS011;35400;45.472;-122.822;2023-07-16T07:44:38;2.40;;;2.30;;
6374;SDS011;35400;45.472;-122.822;2023-07-16T07:47:05;2.90;;;2.70;;
6374;SDS011;35400;45.472;-122.822;2023-07-16T07:49:33;2.47;;;2.25;;
6374;SDS011;35400;45.472;-122.822;2023-07-16T07:52:00;2.45;;;2.30;;
6374;SDS011;35400;45.472;-122.822;2023-07-16T07:54:27;2.83;;;2.55;;
6374;SDS011;35400;45.472;-122.822;2023-07-16T07:56:53;2.80;;;2.60;;
6374;SDS011;35400;45.472;-122.822;2023-07-16T07:59:20;4.47;;;2.72;;
6374;SDS011;35400;45.472;-122.822;2023-07-16T08:01:48;3.05;;;2.53;;
6374;SDS011;35400;45.472;-122.822;2023-07-16T08:04:14;2.72;;;2.53;;
6374;SDS011;35400;45.472;-122.822;2023-07-16T08:06:41;2.72;;;2.53;;
6374;SDS011;35400;45.472;-122.822;2023-07-16T08:09:09;3.10;;;2.88;;
6374;SDS011;35400;45.472;-122.822;2023-07-16T08:11:35;2.45;;;2.25;;
6374;SDS011;35400;45.472;-122.822;2023-07-16T08:14:02;2.83;;;2.63;;
6374;SDS011;35400;45.472;-122.822;2023-07-16T08:16:29;3.08;;;2.70;;
6374;SDS011;35400;45.472;-122.822;2023-07-16T08:18:56;2.83;;;2.63;;
6374;SDS011;35400;45.472;-122.822;2023-07-16T08:21:23;3.10;;;2.80;;
6374;SDS011;35400;45.472;-122.822;2023-07-16T08:23:49;3.22;;;2.92;;
6374;SDS011;35400;45.472;-122.822;2023-07-16T08:26:18;2.83;;;2.60;;
6374;SDS011;35400;45.472;-122.822;2023-07-16T08:28:46;2.42;;;2.22;;
6374;SDS011;35400;45.472;-122.822;2023-07-16T08:31:13;2.50;;;2.30;;
6374;SDS011;35400;45.472;-122.822;2023-07-16T08:33:40;3.50;;;2.47;;
6374;SDS011;35400;45.472;-122.822;2023-07-16T08:36:07;3.67;;;2.80;;
6374;SDS011;35400;45.472;-122.822;2023-07-16T08:38:35;2.55;;;2.38;;
6374;SDS011;35400;45.472;-122.822;2023-07-16T08:41:02;3.00;;;2.80;;
6374;SDS011;35400;45.472;-122.822;2023-07-16T08:43:29;2.60;;;2.40;;
6374;SDS011;35400;45.472;-122.822;2023-07-16T08:45:56;3.17;;;2.33;;
6374;SDS011;35400;45.472;-122.822;2023-07-16T08:48:23;2.55;;;2.35;;
6374;SDS011;35400;45.472;-122.822;2023-07-16T08:50:51;2.85;;;2.65;;
6374;SDS011;35400;45.472;-122.822;2023-07-16T08:53:18;2.45;;;2.22;;
6374;SDS011;35400;45.472;-122.822;2023-07-16T08:55:46;3.13;;;2.83;;
6374;SDS011;35400;45.472;-122.822;2023-07-16T08:58:14;2.40;;;2.20;;
6374;SDS011;35400;45.472;-122.822;2023-07-16T09:00:42;2.57;;;2.37;;
6374;SDS011;35400;45.472;-122.822;2023-07-16T09:03:11;2.90;;;2.70;;
6374;SDS011;35400;45.472;-122.822;2023-07-16T09:05:47;2.57;;;2.47;;
6374;SDS011;35400;45.472;-122.822;2023-07-16T09:08:14;2.80;;;2.60;;
6374;SDS011;35400;45.472;-122.822;2023-07-16T09:10:41;2.80;;;2.60;;
6374;SDS011;35400;45.472;-122.822;2023-07-16T09:13:10;2.40;;;2.20;;
6374;SDS011;35400;45.472;-122.822;2023-07-16T09:15:37;2.50;;;2.30;;
6374;SDS011;35400;45.472;-122.822;2023-07-16T09:18:06;6.73;;;2.87;;
6374;SDS011;35400;45.472;-122.822;2023-07-16T09:20:36;2.60;;;2.40;;
6374;SDS011;35400;45.472;-122.822;2023-07-16T09:23:05;3.10;;;2.77;;
6374;SDS011;35400;45.472;-122.822;2023-07-16T09:25:32;2.93;;;2.73;;
6374;SDS011;35400;45.472;-122.822;2023-07-16T09:28:03;3.27;;;2.67;;
6374;SDS011;35400;45.472;-122.822;2023-07-16T09:30:31;2.57;;;2.40;;
6374;SDS011;35400;45.472;-122.822;2023-07-16T09:33:14;2.07;;;1.97;;
6374;SDS011;35400;45.472;-122.822;2023-07-16T09:35:43;2.80;;;2.50;;
6374;SDS011;35400;45.472;-122.822;2023-07-16T09:38:10;2.70;;;2.50;;
6374;SDS011;35400;45.472;-122.822;2023-07-16T09:40:38;2.73;;;2.53;;
6374;SDS011;35400;45.472;-122.822;2023-07-16T09:43:09;3.07;;;2.47;;
6374;SDS011;35400;45.472;-122.822;2023-07-16T09:45:37;2.90;;;2.60;;
6374;SDS011;35400;45.472;-122.822;2023-07-16T09:48:05;2.50;;;2.30;;
6374;SDS011;35400;45.472;-122.822;2023-07-16T09:50:32;3.17;;;2.87;;
6374;SDS011;35400;45.472;-122.822;2023-07-16T09:53:01;3.03;;;2.53;;
6374;SDS011;35400;45.472;-122.822;2023-07-16T09:55:33;3.87;;;2.60;;
6374;SDS011;35400;45.472;-122.822;2023-07-16T09:58:05;3.37;;;2.77;;
6374;SDS011;35400;45.472;-122.822;2023-07-16T10:00:34;3.20;;;2.80;;
6374;SDS011;35400;45.472;-122.822;2023-07-16T10:03:02;3.33;;;2.70;;
6374;SDS011;35400;45.472;-122.822;2023-07-16T10:05:34;2.50;;;2.30;;
6374;SDS011;35400;45.472;-122.822;2023-07-16T10:08:14;3.00;;;2.80;;
6374;SDS011;35400;45.472;-122.822;2023-07-16T10:10:52;2.60;;;2.40;;
6374;SDS011;35400;45.472;-122.822;2023-07-16T10:13:22;2.67;;;2.47;;
6374;SDS011;35400;45.472;-122.822;2023-07-16T10:15:50;2.60;;;2.40;;
6374;SDS011;35400;45.472;-122.822;2023-07-16T10:18:23;2.93;;;2.70;;
6374;SDS011;35400;45.472;-122.822;2023-07-16T10:21:02;3.77;;;2.50;;
6374;SDS011;35400;45.472;-122.822;2023-07-16T10:23:39;2.47;;;2.27;;
6374;SDS011;35400;45.472;-122.822;2023-07-16T10:26:09;2.40;;;2.20;;
6374;SDS011;35400;45.472;-122.822;2023-07-16T10:28:37;2.70;;;2.50;;
6374;SDS011;35400;45.472;-122.822;2023-07-16T10:31:05;3.10;;;2.80;;
6374;SDS011;35400;45.472;-122.822;2023-07-16T10:33:42;6.03;;;2.53;;
6374;SDS011;35400;45.472;-122.822;2023-07-16T10:36:09;2.23;;;2.03;;
6374;SDS011;35400;45.472;-122.822;2023-07-16T10:38:42;2.30;;;2.20;;
6374;SDS011;35400;45.472;-122.822;2023-07-16T10:41:09;3.00;;;2.70;;
6374;SDS011;35400;45.472;-122.822;2023-07-16T10:43:36;2.50;;;2.30;;
6374;SDS011;35400;45.472;-122.822;2023-07-16T10:46:03;2.97;;;2.77;;
6374;SDS011;35400;45.472;-122.822;2023-07-16T10:48:29;2.80;;;2.60;;
6374;SDS011;35400;45.472;-122.822;2023-07-16T10:50:56;2.53;;;2.33;;
6374;SDS011;35400;45.472;-122.822;2023-07-16T10:53:24;2.20;;;2.10;;
6374;SDS011;35400;45.472;-122.822;2023-07-16T10:55:50;2.60;;;2.40;;
6374;SDS011;35400;45.472;-122.822;2023-07-16T10:58:17;2.60;;;2.40;;
6374;SDS011;35400;45.472;-122.822;2023-07-16T11:00:44;2.67;;;2.47;;
6374;SDS011;35400;45.472;-122.822;2023-07-16T11:03:14;2.73;;;2.53;;
6374;SDS011;35400;45.472;-122.822;2023-07-16T11:05:45;2.83;;;2.63;;
6374;SDS011;35400;45.472;-122.822;2023-07-16T11:08:20;3.03;;;2.77;;
6374;SDS011;35400;45.472;-122.822;2023-07-16T11:10:58;2.50;;;2.30;;
6374;SDS011;35400;45.472;-122.822;2023-07-16T11:13:28;2.53;;;2.33;;
6374;SDS011;35400;45.472;-122.822;2023-07-16T11:16:06;2.47;;;2.27;;
6374;SDS011;35400;45.472;-122.822;2023-07-16T11:18:33;2.70;;;2.50;;
6374;SDS011;35400;45.472;-122.822;2023-07-16T11:21:00;2.73;;;2.53;;
6374;SDS011;35400;45.472;-122.822;2023-07-16T11:23:28;2.87;;;2.47;;
6374;SDS011;35400;45.472;-122.822;2023-07-16T11:25:55;2.80;;;2.60;;
6374;SDS011;35400;45.472;-122.822;2023-07-16T11:28:22;2.77;;;2.57;;
6374;SDS011;35400;45.472;-122.822;2023-07-16T11:30:48;2.90;;;2.70;;
6374;SDS011;35400;45.472;-122.822;2023-07-16T11:33:15;2.93;;;2.70;;
6374;SDS011;35400;45.472;-122.822;2023-07-16T11:35:42;5.23;;;3.10;;
6374;SDS011;35400;45.472;-122.822;2023-07-16T11:38:09;3.23;;;2.50;;
6374;SDS011;35400;45.472;-122.822;2023-07-16T11:40:36;3.40;;;3.10;;
6374;SDS011;35400;45.472;-122.822;2023-07-16T11:43:10;3.10;;;2.80;;
6374;SDS011;35400;45.472;-122.822;2023-07-16T11:45:38;2.93;;;2.73;;
6374;SDS011;35400;45.472;-122.822;2023-07-16T11:48:05;3.50;;;3.07;;
6374;SDS011;35400;45.472;-122.822;2023-07-16T11:50:32;4.13;;;3.20;;
6374;SDS011;35400;45.472;-122.822;2023-07-16T11:53:00;3.43;;;3.13;;
6374;SDS011;35400;45.472;-122.822;2023-07-16T11:55:27;3.00;;;2.73;;
6374;SDS011;35400;45.472;-122.822;2023-07-16T11:57:54;3.20;;;2.80;;
6374;SDS011;35400;45.472;-122.822;2023-07-16T12:00:25;3.17;;;2.97;;
6374;SDS011;35400;45.472;-122.822;2023-07-16T12:02:52;2.87;;;2.67;;
6374;SDS011;35400;45.472;-122.822;2023-07-16T12:05:22;2.50;;;2.30;;
6374;SDS011;35400;45.472;-122.822;2023-07-16T12:07:53;3.23;;;2.53;;
6374;SDS011;35400;45.472;-122.822;2023-07-16T12:10:20;2.80;;;2.50;;
6374;SDS011;35400;45.472;-122.822;2023-07-16T12:12:47;2.47;;;2.27;;
6374;SDS011;35400;45.472;-122.822;2023-07-16T12:15:14;3.00;;;2.70;;
6374;SDS011;35400;45.472;-122.822;2023-07-16T12:17:41;2.80;;;2.60;;
6374;SDS011;35400;45.472;-122.822;2023-07-16T12:20:08;2.73;;;2.53;;
6374;SDS011;35400;45.472;-122.822;2023-07-16T12:22:35;3.03;;;2.83;;
6374;SDS011;35400;45.472;-122.822;2023-07-16T12:25:02;3.60;;;2.63;;
6374;SDS011;35400;45.472;-122.822;2023-07-16T12:27:29;2.33;;;2.17;;
6374;SDS011;35400;45.472;-122.822;2023-07-16T12:29:56;2.60;;;2.40;;
6374;SDS011;35400;45.472;-122.822;2023-07-16T12:32:23;3.03;;;2.50;;
6374;SDS011;35400;45.472;-122.822;2023-07-16T12:34:50;2.70;;;2.50;;
6374;SDS011;35400;45.472;-122.822;2023-07-16T12:37:17;2.90;;;2.60;;
6374;SDS011;35400;45.472;-122.822;2023-07-16T12:39:43;3.00;;;2.80;;
6374;SDS011;35400;45.472;-122.822;2023-07-16T12:42:10;2.90;;;2.47;;
6374;SDS011;35400;45.472;-122.822;2023-07-16T12:44:37;2.83;;;2.63;;
6374;SDS011;35400;45.472;-122.822;2023-07-16T12:47:04;2.90;;;2.70;;
6374;SDS011;35400;45.472;-122.822;2023-07-16T12:49:34;2.90;;;2.70;;
6374;SDS011;35400;45.472;-122.822;2023-07-16T12:52:01;3.13;;;2.93;;
6374;SDS011;35400;45.472;-122.822;2023-07-16T12:54:28;3.40;;;3.10;;
6374;SDS011;35400;45.472;-122.822;2023-07-16T12:56:54;3.07;;;2.87;;
6374;SDS011;35400;45.472;-122.822;2023-07-16T12:59:21;3.00;;;2.70;;
6374;SDS011;35400;45.472;-122.822;2023-07-16T13:01:50;3.47;;;3.17;;
6374;SDS011;35400;45.472;-122.822;2023-07-16T13:04:17;4.30;;;3.30;;
6374;SDS011;35400;45.472;-122.822;2023-07-16T13:06:44;2.87;;;2.60;;
6374;SDS011;35400;45.472;-122.822;2023-07-16T13:09:14;3.67;;;3.00;;
6374;SDS011;35400;45.472;-122.822;2023-07-16T13:11:42;3.13;;;2.83;;
6374;SDS011;35400;45.472;-122.822;2023-07-16T13:14:09;3.20;;;2.90;;
6374;SDS011;35400;45.472;-122.822;2023-07-16T13:16:36;4.37;;;2.97;;
6374;SDS011;35400;45.472;-122.822;2023-07-16T13:19:03;2.60;;;2.40;;
6374;SDS011;35400;45.472;-122.822;2023-07-16T13:21:30;3.07;;;2.77;;
6374;SDS011;35400;45.472;-122.822;2023-07-16T13:23:56;3.17;;;2.87;;
6374;SDS011;35400;45.472;-122.822;2023-07-16T13:26:23;2.70;;;2.50;;
6374;SDS011;35400;45.472;-122.822;2023-07-16T13:28:50;3.10;;;2.90;;
6374;SDS011;35400;45.472;-122.822;2023-07-16T13:31:18;2.97;;;2.70;;
6374;SDS011;35400;45.472;-122.822;2023-07-16T13:33:44;4.33;;;2.80;;
6374;SDS011;35400;45.472;-122.822;2023-07-16T13:36:11;3.07;;;2.50;;
6374;SDS011;35400;45.472;-122.822;2023-07-16T13:38:38;3.13;;;2.93;;
6374;SDS011;35400;45.472;-122.822;2023-07-16T13:41:05;3.43;;;3.00;;
6374;SDS011;35400;45.472;-122.822;2023-07-16T13:43:32;2.70;;;2.50;;
6374;SDS011;35400;45.472;-122.822;2023-07-16T13:45:59;3.40;;;2.63;;
6374;SDS011;35400;45.472;-122.822;2023-07-16T13:48:25;3.20;;;3.00;;
6374;SDS011;35400;45.472;-122.822;2023-07-16T13:50:52;2.77;;;2.57;;
6374;SDS011;35400;45.472;-122.822;2023-07-16T13:53:19;3.17;;;2.77;;
6374;SDS011;35400;45.472;-122.822;2023-07-16T13:55:46;3.27;;;3.07;;
6374;SDS011;35400;45.472;-122.822;2023-07-16T13:58:13;3.33;;;2.90;;
6374;SDS011;35400;45.472;-122.822;2023-07-16T14:00:40;4.30;;;3.40;;
6374;SDS011;35400;45.472;-122.822;2023-07-16T14:03:07;3.83;;;3.30;;
6374;SDS011;35400;45.472;-122.822;2023-07-16T14:05:34;3.33;;;3.03;;
6374;SDS011;35400;45.472;-122.822;2023-07-16T14:08:06;3.90;;;3.60;;
6374;SDS011;35400;45.472;-122.822;2023-07-16T14:10:33;4.10;;;3.70;;
6374;SDS011;35400;45.472;-122.822;2023-07-16T14:13:00;3.50;;;3.20;;
6374;SDS011;35400;45.472;-122.822;2023-07-16T14:15:27;3.37;;;3.07;;
6374;SDS011;35400;45.472;-122.822;2023-07-16T14:17:54;3.43;;;3.13;;
6374;SDS011;35400;45.472;-122.822;2023-07-16T14:20:21;3.60;;;3.30;;
6374;SDS011;35400;45.472;-122.822;2023-07-16T14:22:47;3.47;;;3.17;;
6374;SDS011;35400;45.472;-122.822;2023-07-16T14:25:14;3.00;;;2.80;;
6374;SDS011;35400;45.472;-122.822;2023-07-16T14:27:41;3.40;;;3.10;;
6374;SDS011;35400;45.472;-122.822;2023-07-16T14:30:08;3.63;;;3.10;;
6374;SDS011;35400;45.472;-122.822;2023-07-16T14:32:36;3.80;;;2.67;;